Time;durP1;ratioP1;P1;durP2;ratioP2;P2;SDS_P1;SDS_P2;PMS_P1;PMS_P2;Temp;Humidity;BMP_temperature;BMP_pressure;BME280_temperature;BME280_humidity;BME280_pressure;Samples;Min_cycle;Max_cycle;Signal;HPM_P1;HPM_P2
2021/04/17 00:02:23;;;;;;;17.5;13;;;;;;;2.44;100;98832.1;;;;
2021/04/17 00:12:16;;;;;;;20.3;14.7;;;;;;;2.56;100;98832.78;;;;
2021/04/17 00:22:14;;;;;;;20.9;14.8;;;;;;;2.55;100;98839.16;;;;
2021/04/17 00:32:12;;;;;;;18.4;15;;;;;;;2.57;100;98826.39;;;;
2021/04/17 00:42:10;;;;;;;16.2;14;;;;;;;2.5;100;98823.93;;;;
2021/04/17 00:52:08;;;;;;;17.3;13.9;;;;;;;2.49;100;98819.69;;;;
2021/04/17 01:02:06;;;;;;;21.7;14.4;;;;;;;2.47;100;98824.43;;;;
2021/04/17 01:12:04;;;;;;;17.7;14.5;;;;;;;2.47;100;98834.27;;;;
2021/04/17 01:22:02;;;;;;;16.2;12.3;;;;;;;2.44;100;98835.57;;;;
2021/04/17 01:32:01;;;;;;;16.6;13;;;;;;;2.41;100;98830.75;;;;
2021/04/17 01:41:59;;;;;;;15.4;12.1;;;;;;;2.4;100;98841.63;;;;
2021/04/17 01:51:57;;;;;;;18.3;12.6;;;;;;;2.28;100;98832.98;;;;
2021/04/17 02:01:55;;;;;;;16.5;14;;;;;;;2.21;100;98835.02;;;;
2021/04/17 02:11:53;;;;;;;21.7;13.9;;;;;;;2.15;100;98830.7;;;;
2021/04/17 02:21:51;;;;;;;15.1;12.3;;;;;;;2.16;100;98837.61;;;;
2021/04/17 02:31:49;;;;;;;15.8;12;;;;;;;2.27;100;98828.71;;;;
2021/04/17 02:41:47;;;;;;;14.7;9;;;;;;;2.18;100;98831.02;;;;
2021/04/17 02:51:45;;;;;;;14;9.3;;;;;;;2.22;100;98828.66;;;;
2021/04/17 03:01:43;;;;;;;17.5;10.6;;;;;;;2.2;100;98828.9;;;;
2021/04/17 03:11:41;;;;;;;16.6;10.3;;;;;;;2.19;100;98832.59;;;;
2021/04/17 03:21:39;;;;;;;16;11.2;;;;;;;2.24;100;98834.52;;;;
2021/04/17 03:31:37;;;;;;;15.1;11.4;;;;;;;2.29;100;98838.04;;;;
2021/04/17 03:41:35;;;;;;;15.4;11;;;;;;;2.37;100;98834.14;;;;
2021/04/17 03:51:33;;;;;;;15.7;12.2;;;;;;;2.32;100;98839.42;;;;
2021/04/17 04:01:31;;;;;;;19.1;11.7;;;;;;;2.42;100;98840.34;;;;
2021/04/17 04:11:29;;;;;;;15.3;11.9;;;;;;;2.43;100;98849.13;;;;
2021/04/17 04:21:27;;;;;;;12.4;11.1;;;;;;;2.6;100;98854.38;;;;
2021/04/17 04:31:25;;;;;;;15.4;11.3;;;;;;;2.56;100;98866.56;;;;
2021/04/17 04:41:24;;;;;;;11.8;9.7;;;;;;;2.69;100;98877.63;;;;
2021/04/17 04:51:22;;;;;;;12.9;10.1;;;;;;;2.79;100;98869.75;;;;
2021/04/17 05:01:21;;;;;;;14.2;12.2;;;;;;;2.83;100;98865.54;;;;
2021/04/17 05:11:18;;;;;;;20;16.7;;;;;;;2.9;100;98866.15;;;;
2021/04/17 05:21:16;;;;;;;18.1;16.2;;;;;;;2.96;100;98870.46;;;;
2021/04/17 05:31:14;;;;;;;17.8;15.3;;;;;;;2.97;100;98868.61;;;;
2021/04/17 05:41:12;;;;;;;14.6;11.7;;;;;;;3.09;100;98871.13;;;;
2021/04/17 05:51:10;;;;;;;13.6;12;;;;;;;3.08;100;98874.84;;;;
2021/04/17 06:01:08;;;;;;;12.8;10.7;;;;;;;3.07;100;98871.36;;;;
2021/04/17 06:11:06;;;;;;;17.3;10.3;;;;;;;3.08;100;98872.98;;;;
2021/04/17 06:21:05;;;;;;;11.4;9.7;;;;;;;3.26;100;98869.96;;;;
2021/04/17 06:31:04;;;;;;;10.4;8.4;;;;;;;3.44;100;98866.9;;;;
2021/04/17 06:41:02;;;;;;;13.6;12.2;;;;;;;3.57;100;98863.02;;;;
2021/04/17 06:50:59;;;;;;;12.6;11.4;;;;;;;3.61;100;98876.64;;;;
2021/04/17 07:00:57;;;;;;;14;11.6;;;;;;;3.77;100;98873.83;;;;
2021/04/17 07:10:56;;;;;;;15.7;12;;;;;;;3.65;100;98873.19;;;;
2021/04/17 07:20:54;;;;;;;16.3;13.6;;;;;;;3.8;100;98869.83;;;;
2021/04/17 07:30:52;;;;;;;15.5;11.8;;;;;;;3.99;100;98874.48;;;;
2021/04/17 07:40:50;;;;;;;19;14.9;;;;;;;3.95;100;98884.09;;;;
2021/04/17 07:50:48;;;;;;;22.9;17.9;;;;;;;4.02;100;98887.33;;;;
2021/04/17 08:00:47;;;;;;;22.4;17.9;;;;;;;4.23;100;98895.45;;;;
2021/04/17 08:10:45;;;;;;;23.1;20.6;;;;;;;4.28;100;98903.45;;;;
2021/04/17 08:20:43;;;;;;;18.6;13.4;;;;;;;4.12;100;98899.92;;;;
2021/04/17 08:30:41;;;;;;;20;15;;;;;;;4.1;100;98906.55;;;;
2021/04/17 08:40:50;;;;;;;18;16;;;;;;;4.02;100;98900.66;;;;
2021/04/17 08:50:41;;;;;;;20.5;18.4;;;;;;;4.21;100;98905.55;;;;
2021/04/17 09:00:36;;;;;;;22.8;19.6;;;;;;;4.13;100;98911.39;;;;
2021/04/17 09:10:35;;;;;;;21.1;17.7;;;;;;;4.19;100;98910.36;;;;
2021/04/17 09:20:37;;;;;;;23.9;19;;;;;;;4.31;100;98903.75;;;;
2021/04/17 09:30:31;;;;;;;23.2;17.4;;;;;;;4.3;100;98907.5;;;;
2021/04/17 09:40:29;;;;;;;30.5;24.8;;;;;;;4.25;100;98912.79;;;;
2021/04/17 09:50:28;;;;;;;23.2;19.3;;;;;;;4.45;100;98904.89;;;;
2021/04/17 10:00:26;;;;;;;25.4;16.9;;;;;;;4.5;100;98906.78;;;;
2021/04/17 10:10:24;;;;;;;20.4;17.4;;;;;;;4.76;100;98905;;;;
2021/04/17 10:20:22;;;;;;;21.3;17.8;;;;;;;4.79;100;98907.17;;;;
2021/04/17 10:30:21;;;;;;;27.9;22.1;;;;;;;4.91;100;98897.86;;;;
2021/04/17 10:40:19;;;;;;;28.1;20;;;;;;;4.95;100;98896.28;;;;
2021/04/17 10:50:18;;;;;;;23.9;21.6;;;;;;;4.97;100;98895.99;;;;
2021/04/17 11:00:16;;;;;;;32.2;23.9;;;;;;;5.2;100;98889.38;;;;
2021/04/17 11:10:14;;;;;;;27.4;20.8;;;;;;;5;100;98904.28;;;;
2021/04/17 11:20:13;;;;;;;21.3;19;;;;;;;5.28;100;98900.34;;;;
2021/04/17 11:30:11;;;;;;;25;17.1;;;;;;;5.28;100;98902.2;;;;
2021/04/17 11:40:10;;;;;;;23.1;18.1;;;;;;;5.44;100;98903.84;;;;
2021/04/17 11:50:08;;;;;;;16.6;14;;;;;;;5.53;100;98910.25;;;;
2021/04/17 12:00:07;;;;;;;20;13.7;;;;;;;5.57;100;98903.31;;;;
2021/04/17 12:10:05;;;;;;;22.5;17.1;;;;;;;5.84;100;98903.03;;;;
2021/04/17 12:20:03;;;;;;;19.3;13.7;;;;;;;5.92;100;98905.2;;;;
2021/04/17 12:30:02;;;;;;;15.5;13.9;;;;;;;5.86;100;98908.96;;;;
2021/04/17 12:40:00;;;;;;;19.4;15;;;;;;;5.85;100;98908.13;;;;
2021/04/17 12:49:59;;;;;;;19.8;15.1;;;;;;;5.43;100;98911.05;;;;
2021/04/17 12:59:57;;;;;;;20.9;17.8;;;;;;;5.43;100;98907.58;;;;
2021/04/17 13:09:55;;;;;;;23.5;19.3;;;;;;;5.44;100;98906.52;;;;
2021/04/17 13:19:54;;;;;;;27;23.3;;;;;;;5.44;100;98906.52;;;;
2021/04/17 13:29:52;;;;;;;24.1;18.4;;;;;;;5.57;100;98909.47;;;;
2021/04/17 13:39:51;;;;;;;30;22.6;;;;;;;5.62;100;98906;;;;
2021/04/17 13:49:49;;;;;;;28.2;20.1;;;;;;;5.57;100;98908.66;;;;
2021/04/17 13:59:48;;;;;;;35.7;23.2;;;;;;;5.28;100;98907.55;;;;
2021/04/17 14:09:46;;;;;;;24.1;21.2;;;;;;;5.27;100;98906.77;;;;
2021/04/17 14:19:44;;;;;;;30.5;25.4;;;;;;;5.33;100;98908.38;;;;
2021/04/17 14:29:43;;;;;;;35.8;30.6;;;;;;;5.31;100;98912.39;;;;
2021/04/17 14:39:41;;;;;;;33.8;29.9;;;;;;;5.22;100;98914.77;;;;
2021/04/17 14:49:41;;;;;;;35.5;31.3;;;;;;;5.3;100;98911.58;;;;
2021/04/17 14:59:41;;;;;;;35;31.3;;;;;;;5.39;100;98919.86;;;;
2021/04/17 15:09:36;;;;;;;41.8;31.5;;;;;;;5.41;100;98925.76;;;;
2021/04/17 15:19:35;;;;;;;32.4;29.1;;;;;;;5.38;100;98928.97;;;;
2021/04/17 15:29:33;;;;;;;27.8;21;;;;;;;5.27;100;98916.65;;;;
2021/04/17 15:39:31;;;;;;;25.4;20.9;;;;;;;5.37;100;98920.14;;;;
2021/04/17 15:49:30;;;;;;;29.1;24.9;;;;;;;5.31;100;98918.51;;;;
2021/04/17 16:19:24;;;;;;;24.3;21.8;;;;;;;5.02;100;98898.69;;;;
2021/04/17 16:29:23;;;;;;;35.2;26.7;;;;;;;4.78;100;98903.7;;;;
2021/04/17 16:39:21;;;;;;;33.5;26.9;;;;;;;4.84;100;98899.17;;;;
2021/04/17 16:49:19;;;;;;;41.6;30.1;;;;;;;4.73;100;98909.01;;;;
2021/04/17 16:59:18;;;;;;;41.2;31.1;;;;;;;4.72;100;98910.06;;;;
2021/04/17 17:09:16;;;;;;;32.3;28.5;;;;;;;4.58;100;98909.74;;;;
2021/04/17 17:19:14;;;;;;;37.7;26.1;;;;;;;4.58;100;98920.42;;;;
2021/04/17 17:29:12;;;;;;;38.5;32.4;;;;;;;4.51;100;98914.52;;;;
2021/04/17 17:39:12;;;;;;;42.2;37.8;;;;;;;4.49;100;98923.85;;;;
2021/04/17 17:49:09;;;;;;;41.8;36.8;;;;;;;4.56;100;98914.55;;;;
2021/04/17 17:59:07;;;;;;;49.8;42.1;;;;;;;4.6;100;98922.84;;;;
2021/04/17 18:09:06;;;;;;;51.4;37.1;;;;;;;4.65;100;98930.86;;;;
2021/04/17 18:19:04;;;;;;;42.3;37.7;;;;;;;4.62;100;98935.94;;;;
2021/04/17 18:29:02;;;;;;;40.7;32.5;;;;;;;4.56;100;98948.44;;;;
2021/04/17 18:39:00;;;;;;;38.5;33.8;;;;;;;4.59;100;98958.59;;;;
2021/04/17 18:48:59;;;;;;;37.6;33.9;;;;;;;4.58;100;98966.88;;;;
2021/04/17 18:58:57;;;;;;;49.9;41.5;;;;;;;4.68;100;98966.93;;;;
2021/04/17 19:08:55;;;;;;;50.2;41;;;;;;;4.65;100;98970.13;;;;
2021/04/17 19:18:53;;;;;;;44.3;37.6;;;;;;;4.6;100;98954.06;;;;
2021/04/17 19:28:52;;;;;;;44.8;37.1;;;;;;;4.49;100;98958.55;;;;
2021/04/17 19:38:50;;;;;;;55.4;46.3;;;;;;;4.47;100;98961.49;;;;
2021/04/17 19:48:48;;;;;;;45.7;37.6;;;;;;;4.46;100;98956.4;;;;
2021/04/17 19:58:47;;;;;;;46.3;36.9;;;;;;;4.44;100;98958.53;;;;
2021/04/17 20:08:45;;;;;;;42.7;36;;;;;;;4.49;100;98963.88;;;;
2021/04/17 20:18:43;;;;;;;43;35.2;;;;;;;4.53;100;98956.97;;;;
2021/04/17 20:28:41;;;;;;;39.1;34.4;;;;;;;4.35;100;98958.2;;;;
2021/04/17 20:38:41;;;;;;;40.4;36.4;;;;;;;4.39;100;98967.3;;;;
2021/04/17 20:48:38;;;;;;;44;39.2;;;;;;;4.28;100;98962.95;;;;
2021/04/17 20:58:36;;;;;;;42.3;36.2;;;;;;;4.29;100;98964.58;;;;
2021/04/17 21:08:34;;;;;;;43.5;38.7;;;;;;;4.29;100;98951.23;;;;
2021/04/17 21:18:32;;;;;;;46.5;39.4;;;;;;;4.24;100;98947.72;;;;
2021/04/17 21:28:33;;;;;;;55.1;44.8;;;;;;;4.36;100;98948.34;;;;
2021/04/17 21:38:30;;;;;;;61;39.9;;;;;;;4.31;100;98950.96;;;;
2021/04/17 21:48:27;;;;;;;46.3;41.4;;;;;;;4.33;100;98949.66;;;;
2021/04/17 21:58:25;;;;;;;53.9;38.9;;;;;;;4.4;100;98944.09;;;;
2021/04/17 22:08:24;;;;;;;51.9;33.9;;;;;;;4.41;100;98949.16;;;;
2021/04/17 22:18:22;;;;;;;44.4;35.3;;;;;;;4.6;100;98948.73;;;;
2021/04/17 22:28:20;;;;;;;39.4;34.2;;;;;;;4.49;100;98948.68;;;;
2021/04/17 22:38:18;;;;;;;46.3;37.7;;;;;;;4.54;100;98959.39;;;;
2021/04/17 22:48:17;;;;;;;42.2;36.2;;;;;;;4.63;100;98954.35;;;;
2021/04/17 22:58:15;;;;;;;59.1;45.7;;;;;;;4.65;100;98949.55;;;;
2021/04/17 23:08:13;;;;;;;50.9;36.1;;;;;;;4.72;100;98942.1;;;;
2021/04/17 23:18:11;;;;;;;49.6;41.2;;;;;;;4.72;100;98935.98;;;;
2021/04/17 23:28:10;;;;;;;54.4;42.4;;;;;;;4.77;100;98925.31;;;;
2021/04/17 23:38:08;;;;;;;45.8;40.5;;;;;;;4.74;100;98921.3;;;;
2021/04/17 23:48:06;;;;;;;57.6;43;;;;;;;4.82;100;98912.8;;;;
2021/04/17 23:58:05;;;;;;;54.1;44.2;;;;;;;4.85;100;98908.8;;;;
